Time;durP1;ratioP1;P1;durP2;ratioP2;P2;SDS_P1;SDS_P2;PMS_P1;PMS_P2;Temp;Humidity;BMP_temperature;BMP_pressure;BME280_temperature;BME280_humidity;BME280_pressure;Samples;Min_cycle;Max_cycle;Signal;HPM_P1;HPM_P2
2023/12/01 00:00:32;;;;;;;;;44.75;35.75;;;;;5.90;100.00;100013.94;6216608;22;45305;-70
2023/12/01 00:02:58;;;;;;;;;37.00;32.50;;;;;5.94;100.00;100020.78;6217002;22;45130;-69
2023/12/01 00:05:23;;;;;;;;;47.00;37.75;;;;;5.75;100.00;99983.06;6190317;22;47459;-69
2023/12/01 00:07:48;;;;;;;;;37.00;35.00;;;;;5.94;100.00;100009.44;6216959;22;45127;-70
2023/12/01 00:10:14;;;;;;;;;41.00;32.25;;;;;5.88;100.00;100005.28;6217195;22;45173;-69
2023/12/01 00:12:39;;;;;;;;;43.75;37.00;;;;;5.88;100.00;100004.44;6217177;22;45412;-70
2023/12/01 00:15:05;;;;;;;;;42.75;35.75;;;;;5.90;100.00;100018.34;6216344;22;45273;-69
2023/12/01 00:17:32;;;;;;;;;49.25;38.50;;;;;5.93;100.00;100020.84;6190084;22;45178;-70
2023/12/01 00:19:57;;;;;;;;;43.00;38.00;;;;;5.88;100.00;100018.41;6217421;22;45245;-69
2023/12/01 00:22:23;;;;;;;;;51.00;37.75;;;;;5.86;100.00;100022.03;6216896;22;45407;-70
2023/12/01 00:24:49;;;;;;;;;41.25;35.50;;;;;5.92;100.00;100030.50;6216845;22;45749;-69
2023/12/01 00:27:14;;;;;;;;;44.50;36.50;;;;;5.88;100.00;100014.94;6216988;22;45305;-69
2023/12/01 00:29:40;;;;;;;;;46.50;38.00;;;;;5.91;100.00;100017.44;6189671;22;45732;-69
2023/12/01 00:32:06;;;;;;;;;51.25;37.25;;;;;5.75;100.00;100007.53;6217145;22;45254;-69
2023/12/01 00:34:31;;;;;;;;;52.25;39.00;;;;;5.88;100.00;100020.19;6217100;22;45250;-69
2023/12/01 00:36:56;;;;;;;;;41.50;37.50;;;;;5.87;100.00;100021.94;6216815;22;45241;-69
2023/12/01 00:39:22;;;;;;;;;39.00;34.00;;;;;5.75;100.00;99997.03;6215517;22;45254;-69
2023/12/01 00:41:47;;;;;;;;;41.25;37.00;;;;;5.84;100.00;100029.91;6217191;22;46022;-70
2023/12/01 00:44:12;;;;;;;;;42.00;39.25;;;;;5.79;100.00;100027.44;6216331;22;45196;-69
2023/12/01 00:46:38;;;;;;;;;36.00;34.00;;;;;5.76;100.00;100021.47;6217189;22;45257;-70
2023/12/01 00:49:03;;;;;;;;;47.00;38.25;;;;;5.65;100.00;100000.09;6217193;22;45110;-69
2023/12/01 00:51:29;;;;;;;;;42.75;35.75;;;;;5.67;100.00;100017.47;6216994;22;45244;-69
2023/12/01 00:53:54;;;;;;;;;47.00;38.75;;;;;5.82;100.00;100030.91;6190011;22;48281;-69
2023/12/01 00:56:20;;;;;;;;;49.50;39.50;;;;;5.84;100.00;100035.16;6190032;22;45439;-69
2023/12/01 00:58:45;;;;;;;;;48.75;38.50;;;;;5.86;100.00;100035.13;6216231;22;45253;-69
2023/12/01 01:01:11;;;;;;;;;34.25;30.75;;;;;5.82;100.00;100025.66;6216647;22;45265;-70
2023/12/01 01:03:36;;;;;;;;;49.50;40.00;;;;;5.84;100.00;100031.66;6216545;22;46693;-69
2023/12/01 01:06:02;;;;;;;;;43.75;35.25;;;;;5.88;100.00;100030.69;6216610;22;45296;-70
2023/12/01 01:08:31;;;;;;;;;49.25;40.50;;;;;5.92;100.00;100042.75;6216399;22;45383;-70
2023/12/01 01:10:57;;;;;;;;;44.00;36.25;;;;;5.94;100.00;100030.41;6215844;22;45363;-69
2023/12/01 01:13:27;;;;;;;;;52.50;37.25;;;;;5.89;100.00;100024.53;6215453;22;45332;-69
2023/12/01 01:15:53;;;;;;;;;43.50;37.00;;;;;5.93;100.00;100032.19;6216519;22;45248;-69
2023/12/01 01:18:20;;;;;;;;;46.00;36.00;;;;;5.77;100.00;99992.56;6216683;22;45296;-69
2023/12/01 01:20:46;;;;;;;;;37.75;29.50;;;;;5.82;100.00;100015.16;6216425;22;45482;-70
2023/12/01 01:23:11;;;;;;;;;38.25;34.75;;;;;5.87;100.00;100028.94;6216618;22;45204;-69
2023/12/01 01:25:36;;;;;;;;;48.75;36.00;;;;;5.85;100.00;100026.38;6216497;22;45278;-69
2023/12/01 01:28:02;;;;;;;;;50.50;38.50;;;;;5.88;100.00;100046.41;6189967;22;45151;-69
2023/12/01 01:30:27;;;;;;;;;50.50;38.25;;;;;5.86;100.00;100032.53;6216158;22;45250;-70
2023/12/01 01:32:53;;;;;;;;;46.00;38.50;;;;;5.88;100.00;100030.69;6216717;22;45388;-69
2023/12/01 01:35:19;;;;;;;;;47.25;39.50;;;;;5.77;100.00;100031.91;6216674;22;45288;-69
2023/12/01 01:37:44;;;;;;;;;46.25;39.75;;;;;5.83;100.00;100041.31;6216917;22;45317;-70
2023/12/01 01:40:11;;;;;;;;;43.00;36.50;;;;;5.81;100.00;100047.53;6216690;22;45260;-70
2023/12/01 01:42:37;;;;;;;;;49.50;38.50;;;;;5.78;100.00;100048.53;6216244;22;45308;-70
2023/12/01 01:45:04;;;;;;;;;50.50;37.50;;;;;5.72;100.00;100054.88;6215976;22;45216;-69
2023/12/01 01:47:29;;;;;;;;;50.75;41.50;;;;;5.70;100.00;100046.19;6217103;22;45275;-70
2023/12/01 01:49:56;;;;;;;;;58.75;44.50;;;;;5.68;100.00;100034.91;6215544;22;45375;-69
2023/12/01 01:52:22;;;;;;;;;58.00;39.25;;;;;5.69;100.00;100044.47;6216782;22;46396;-69
2023/12/01 01:54:51;;;;;;;;;56.75;39.50;;;;;5.69;100.00;100039.22;6216412;22;45224;-70
2023/12/01 01:57:17;;;;;;;;;46.25;38.25;;;;;5.71;100.00;100044.44;6189825;22;45282;-70
2023/12/01 01:59:43;;;;;;;;;52.00;40.00;;;;;5.58;100.00;100033.56;6215838;22;45346;-70
2023/12/01 02:02:09;;;;;;;;;51.75;36.75;;;;;5.69;100.00;100041.03;6216501;22;45313;-69
2023/12/01 02:04:34;;;;;;;;;38.75;33.00;;;;;5.70;100.00;100040.94;6216817;22;45257;-69
2023/12/01 02:07:00;;;;;;;;;42.25;35.75;;;;;5.69;100.00;100043.66;6216140;22;45877;-69
2023/12/01 02:09:27;;;;;;;;;41.25;38.50;;;;;5.69;100.00;100048.91;6216520;22;45282;-70
2023/12/01 02:11:53;;;;;;;;;49.25;37.50;;;;;5.59;100.00;100043.16;6216907;22;45602;-70
2023/12/01 02:14:18;;;;;;;;;48.75;38.75;;;;;5.61;100.00;100049.19;6215580;22;45216;-70
2023/12/01 02:16:46;;;;;;;;;54.00;39.75;;;;;5.57;100.00;100055.44;6189582;22;45158;-70
2023/12/01 02:19:13;;;;;;;;;52.25;40.50;;;;;5.65;100.00;100057.78;6216668;22;45367;-69
2023/12/01 02:21:42;;;;;;;;;56.00;41.75;;;;;5.59;100.00;100047.53;6216038;22;45238;-69
2023/12/01 02:24:09;;;;;;;;;46.50;36.25;;;;;5.61;100.00;100067.53;6216114;22;45284;-69
2023/12/01 02:26:34;;;;;;;;;45.00;34.50;;;;;5.58;100.00;100075.53;6189638;22;45178;-70
2023/12/01 02:29:03;;;;;;;;;44.00;39.50;;;;;5.54;100.00;100062.59;6215946;22;45173;-69
2023/12/01 02:31:28;;;;;;;;;47.50;38.50;;;;;5.46;100.00;100051.56;6216217;22;45328;-69
2023/12/01 02:33:53;;;;;;;;;47.75;39.00;;;;;5.53;100.00;100066.13;6216279;22;45213;-69
2023/12/01 02:36:19;;;;;;;;;45.25;36.00;;;;;5.43;100.00;100051.66;6216618;22;45402;-70
2023/12/01 02:38:47;;;;;;;;;47.75;37.75;;;;;5.59;100.00;100064.13;6216424;22;45174;-70
2023/12/01 02:41:15;;;;;;;;;48.75;39.75;;;;;5.50;100.00;100060.97;6216622;22;46413;-69
2023/12/01 02:43:41;;;;;;;;;51.25;40.00;;;;;5.56;100.00;100072.09;6215526;22;45324;-69
2023/12/01 02:46:06;;;;;;;;;51.50;38.75;;;;;5.43;100.00;100055.13;6216373;22;45561;-69
2023/12/01 02:48:32;;;;;;;;;52.00;41.00;;;;;5.49;100.00;100062.78;6214812;22;45398;-69
2023/12/01 02:50:57;;;;;;;;;55.00;38.50;;;;;5.43;100.00;100055.13;6216231;22;45304;-69
2023/12/01 02:53:23;;;;;;;;;44.25;36.25;;;;;5.47;100.00;100076.84;6216162;22;45356;-69
2023/12/01 02:55:49;;;;;;;;;49.25;40.25;;;;;5.38;100.00;100056.22;6216766;22;45303;-69
2023/12/01 02:58:14;;;;;;;;;47.75;39.75;;;;;5.37;100.00;100057.13;6215378;22;45426;-69
2023/12/01 03:00:42;;;;;;;;;50.75;37.00;;;;;5.46;100.00;100083.00;6215498;22;45335;-69
2023/12/01 03:03:07;;;;;;;;;53.50;39.00;;;;;5.41;100.00;100077.94;6214679;22;45258;-69
2023/12/01 03:05:33;;;;;;;;;46.00;38.00;;;;;5.42;100.00;100084.03;6216088;22;45216;-69
2023/12/01 03:07:58;;;;;;;;;41.00;37.25;;;;;5.33;100.00;100072.13;6214656;22;45181;-70
2023/12/01 03:10:24;;;;;;;;;49.75;39.25;;;;;5.37;100.00;100064.97;6216263;22;45185;-69
2023/12/01 03:12:51;;;;;;;;;47.75;30.50;;;;;5.35;100.00;100072.06;6189427;22;45106;-69
2023/12/01 03:15:20;;;;;;;;;43.75;36.50;;;;;5.32;100.00;100077.44;6215603;22;45265;-69
2023/12/01 03:17:47;;;;;;;;;39.25;35.75;;;;;5.32;100.00;100082.66;6189367;22;45277;-69
2023/12/01 03:20:14;;;;;;;;;50.25;37.50;;;;;5.22;100.00;100076.91;6215753;22;45582;-69
2023/12/01 03:22:45;;;;;;;;;49.00;38.25;;;;;5.14;100.00;100071.09;6216752;22;45279;-69
2023/12/01 03:25:11;;;;;;;;;45.75;37.00;;;;;5.10;100.00;100078.22;6217883;22;45196;-69
2023/12/01 03:27:44;;;;;;;;;50.00;38.50;;;;;5.02;100.00;100079.41;6190218;22;45755;-69
2023/12/01 03:30:15;;;;;;;;;41.50;37.00;;;;;5.01;100.00;100081.16;6215894;22;47496;-69
2023/12/01 03:32:44;;;;;;;;;52.00;37.25;;;;;4.99;100.00;100087.38;6189807;22;45199;-69
2023/12/01 03:35:10;;;;;;;;;49.00;35.00;;;;;4.96;100.00;100074.38;6189921;22;45249;-69
2023/12/01 03:37:36;;;;;;;;;49.00;37.75;;;;;5.00;100.00;100095.19;6217328;22;45319;-69
2023/12/01 03:40:12;;;;;;;;;45.25;37.00;;;;;4.91;100.00;100071.91;6216780;22;45315;-69
2023/12/01 03:42:45;;;;;;;;;39.75;36.75;;;;;4.89;100.00;100073.75;6217438;22;45283;-69
2023/12/01 03:45:12;;;;;;;;;40.00;36.00;;;;;4.88;100.00;100086.88;6216410;22;45289;-69
2023/12/01 03:47:41;;;;;;;;;46.75;37.50;;;;;4.85;100.00;100097.47;6217136;22;45240;-69
2023/12/01 03:50:11;;;;;;;;;51.50;42.50;;;;;4.83;100.00;100097.56;6216643;22;45440;-69
2023/12/01 03:52:39;;;;;;;;;38.75;33.00;;;;;4.77;100.00;100091.66;6217144;22;45276;-69
2023/12/01 03:55:05;;;;;;;;;44.50;36.75;;;;;4.83;100.00;100101.94;6217312;22;45222;-69
2023/12/01 03:57:31;;;;;;;;;45.75;37.50;;;;;4.81;100.00;100094.09;6217040;22;45254;-69
2023/12/01 04:00:02;;;;;;;;;40.50;33.00;;;;;4.79;100.00;100095.06;6216139;22;45236;-69
2023/12/01 04:02:29;;;;;;;;;42.75;37.25;;;;;4.84;100.00;100104.50;6216794;22;45197;-69
2023/12/01 04:04:54;;;;;;;;;60.00;41.75;;;;;4.85;100.00;100111.44;6216270;22;45161;-69
2023/12/01 04:07:19;;;;;;;;;48.50;34.75;;;;;4.80;100.00;100107.28;6190408;22;45331;-69
2023/12/01 04:09:45;;;;;;;;;50.75;39.50;;;;;4.87;100.00;100114.03;6216655;22;47767;-69
2023/12/01 04:12:10;;;;;;;;;44.75;35.00;;;;;4.92;100.00;100117.31;6216428;22;45290;-69
2023/12/01 04:14:35;;;;;;;;;44.25;36.50;;;;;4.91;100.00;100113.00;6190025;22;45314;-69
2023/12/01 04:17:08;;;;;;;;;49.75;35.75;;;;;4.88;100.00;100099.97;6217012;22;45296;-69
2023/12/01 04:19:38;;;;;;;;;49.75;38.50;;;;;4.89;100.00;100099.94;6216774;22;45131;-69
2023/12/01 04:22:04;;;;;;;;;42.50;37.25;;;;;4.89;100.00;100114.81;6216927;22;45221;-69
2023/12/01 04:24:33;;;;;;;;;53.00;37.75;;;;;4.90;100.00;100121.78;6216963;22;45244;-69
2023/12/01 04:27:00;;;;;;;;;23.00;23.00;;;;;4.91;100.00;100116.47;6215636;22;45202;-69
2023/12/01 04:29:28;;;;;;;;;51.50;37.75;;;;;4.84;100.00;100099.28;6215759;22;46506;-69
2023/12/01 04:31:53;;;;;;;;;46.25;38.50;;;;;4.97;100.00;100113.66;6216623;22;45241;-69
2023/12/01 04:34:20;;;;;;;;;56.25;44.00;;;;;4.96;100.00;100125.03;6216479;22;45235;-69
2023/12/01 04:36:50;;;;;;;;;49.50;40.50;;;;;4.97;100.00;100118.03;6216666;22;45145;-69
2023/12/01 04:39:15;;;;;;;;;54.75;39.75;;;;;4.96;100.00;100119.78;6189357;22;45966;-69
2023/12/01 04:41:43;;;;;;;;;57.00;42.75;;;;;5.00;100.00;100120.53;6216948;22;45193;-69
2023/12/01 04:44:09;;;;;;;;;48.50;38.50;;;;;5.01;100.00;100119.59;6216618;22;45401;-69
2023/12/01 04:46:34;;;;;;;;;55.50;40.75;;;;;4.98;100.00;100119.72;6216856;22;45262;-68
2023/12/01 04:49:00;;;;;;;;;56.50;40.50;;;;;4.94;100.00;100115.53;6217199;22;45285;-69
2023/12/01 04:51:25;;;;;;;;;55.00;41.50;;;;;4.99;100.00;100130.16;6216966;22;45255;-69
2023/12/01 04:53:51;;;;;;;;;53.75;40.25;;;;;5.00;100.00;100129.25;6215632;22;45273;-69
2023/12/01 04:56:16;;;;;;;;;52.00;44.25;;;;;5.01;100.00;100120.47;6217336;22;45523;-69
2023/12/01 04:58:41;;;;;;;;;52.00;43.75;;;;;4.99;100.00;100119.69;6216392;22;45282;-69
2023/12/01 05:01:07;;;;;;;;;47.50;39.50;;;;;4.94;100.00;100111.09;6190415;22;45091;-69
2023/12/01 05:03:33;;;;;;;;;50.25;41.75;;;;;5.03;100.00;100117.81;6217013;22;45160;-68
2023/12/01 05:05:58;;;;;;;;;54.25;41.00;;;;;4.98;100.00;100117.97;6216761;22;45394;-68
2023/12/01 05:08:27;;;;;;;;;50.50;40.00;;;;;5.03;100.00;100125.66;6189375;22;48500;-68
2023/12/01 05:10:54;;;;;;;;;54.00;43.25;;;;;5.02;100.00;100124.81;6216263;22;45273;-70
2023/12/01 05:13:20;;;;;;;;;42.00;37.50;;;;;4.78;100.00;100085.53;6215806;22;45253;-70
2023/12/01 05:15:46;;;;;;;;;48.50;41.75;;;;;5.00;100.00;100123.16;6216454;22;45534;-70
2023/12/01 05:18:11;;;;;;;;;55.50;43.25;;;;;4.97;100.00;100126.75;6216636;22;45193;-72
2023/12/01 05:20:37;;;;;;;;;56.00;44.00;;;;;4.95;100.00;100128.56;6216603;22;45294;-70
2023/12/01 05:23:05;;;;;;;;;59.00;44.00;;;;;5.00;100.00;100144.13;6190545;22;45457;-70
2023/12/01 05:25:32;;;;;;;;;54.00;40.50;;;;;4.91;100.00;100123.50;6216198;22;45323;-71
2023/12/01 05:28:08;;;;;;;;;52.00;44.00;;;;;4.96;100.00;100139.88;6216238;22;45218;-71
2023/12/01 05:30:35;;;;;;;;;53.25;38.00;;;;;4.93;100.00;100142.63;6188976;22;45335;-70
2023/12/01 05:33:04;;;;;;;;;51.25;40.75;;;;;4.91;100.00;100136.59;6189774;22;45273;-70
2023/12/01 05:35:31;;;;;;;;;48.50;40.00;;;;;4.92;100.00;100133.03;6216481;22;45161;-70
2023/12/01 05:38:00;;;;;;;;;61.00;46.75;;;;;4.96;100.00;100137.28;6216273;22;45935;-70
2023/12/01 05:40:27;;;;;;;;;50.00;38.75;;;;;4.97;100.00;100136.38;6216368;22;45130;-70
2023/12/01 05:42:55;;;;;;;;;55.75;40.75;;;;;5.00;100.00;100151.97;6216686;22;45210;-70
2023/12/01 05:45:28;;;;;;;;;62.25;44.75;;;;;4.80;100.00;100115.13;6216037;22;45224;-71
2023/12/01 05:47:56;;;;;;;;;57.00;45.50;;;;;4.95;100.00;100131.16;6216480;22;45236;-70
2023/12/01 05:50:24;;;;;;;;;61.50;42.25;;;;;5.03;100.00;100141.38;6189549;22;45796;-69
2023/12/01 05:52:52;;;;;;;;;55.00;43.00;;;;;5.08;100.00;100156.03;6189623;22;45251;-69
2023/12/01 05:55:19;;;;;;;;;54.75;42.50;;;;;5.11;100.00;100149.81;6189812;22;45377;-69
2023/12/01 05:57:50;;;;;;;;;58.00;40.00;;;;;5.11;100.00;100140.19;6216451;22;46268;-69
2023/12/01 06:00:24;;;;;;;;;52.25;40.50;;;;;5.11;100.00;100147.19;6215098;22;45261;-69
2023/12/01 06:02:51;;;;;;;;;47.25;42.00;;;;;5.13;100.00;100137.53;6216222;22;45249;-69
2023/12/01 06:05:21;;;;;;;;;62.50;46.75;;;;;5.04;100.00;100116.91;6215747;22;45461;-69
2023/12/01 06:07:50;;;;;;;;;61.00;43.50;;;;;5.14;100.00;100141.84;6189154;22;47326;-69
2023/12/01 06:10:17;;;;;;;;;46.00;39.25;;;;;5.05;100.00;100136.94;6215644;22;45197;-69
2023/12/01 06:12:43;;;;;;;;;58.00;43.75;;;;;5.06;100.00;100139.53;6215802;22;45208;-69
2023/12/01 06:15:11;;;;;;;;;56.50;41.00;;;;;5.12;100.00;100152.41;6215592;22;45415;-69
2023/12/01 06:17:37;;;;;;;;;59.25;47.75;;;;;5.12;100.00;100151.53;6215906;22;45261;-69
2023/12/01 06:20:03;;;;;;;;;54.75;42.75;;;;;5.09;100.00;100152.50;6215855;22;45190;-69
2023/12/01 06:22:29;;;;;;;;;58.25;40.75;;;;;5.09;100.00;100155.13;6216280;22;45593;-69
2023/12/01 06:24:54;;;;;;;;;60.00;44.25;;;;;5.03;100.00;100147.50;6215791;22;45233;-69
2023/12/01 06:27:20;;;;;;;;;59.50;44.75;;;;;5.06;100.00;100160.50;6215594;22;46050;-69
2023/12/01 06:29:49;;;;;;;;;61.25;44.00;;;;;5.03;100.00;100168.47;6188381;22;45280;-69
2023/12/01 06:32:15;;;;;;;;;61.00;43.00;;;;;5.03;100.00;100168.47;6215436;22;45148;-69
2023/12/01 06:34:41;;;;;;;;;63.75;46.00;;;;;5.02;100.00;100160.63;6215762;22;45260;-69
2023/12/01 06:37:06;;;;;;;;;59.50;40.00;;;;;5.03;100.00;100165.84;6215610;22;46265;-69
2023/12/01 06:39:31;;;;;;;;;53.75;40.25;;;;;5.07;100.00;100159.56;6215961;22;45256;-69
2023/12/01 06:41:57;;;;;;;;;60.00;44.25;;;;;5.05;100.00;100163.16;6216415;22;45193;-69
2023/12/01 06:44:22;;;;;;;;;45.25;37.00;;;;;5.04;100.00;100175.38;6215836;22;45289;-69
2023/12/01 06:46:48;;;;;;;;;50.25;41.75;;;;;5.01;100.00;100167.63;6216471;22;45237;-70
2023/12/01 06:49:14;;;;;;;;;57.75;44.25;;;;;5.04;100.00;100179.81;6215921;22;45251;-69
2023/12/01 06:51:39;;;;;;;;;59.50;42.75;;;;;5.03;100.00;100173.69;6215187;22;45383;-70
2023/12/01 06:54:05;;;;;;;;;44.75;39.00;;;;;5.03;100.00;100165.84;6216158;22;45215;-70
2023/12/01 06:56:30;;;;;;;;;56.50;41.50;;;;;5.04;100.00;100177.19;6215827;22;46322;-70
2023/12/01 06:58:56;;;;;;;;;61.75;47.00;;;;;5.04;100.00;100175.38;6215908;22;45396;-70
2023/12/01 07:01:21;;;;;;;;;53.75;41.75;;;;;4.93;100.00;100151.34;6190909;22;45223;-73
2023/12/01 07:03:50;;;;;;;;;60.25;44.00;;;;;5.05;100.00;100176.25;6215882;22;45407;-70
2023/12/01 07:06:16;;;;;;;;;57.25;43.25;;;;;5.08;100.00;100177.00;6217279;22;45349;-70
2023/12/01 07:08:41;;;;;;;;;58.00;41.00;;;;;5.03;100.00;100170.22;6217047;22;45188;-70
2023/12/01 07:11:07;;;;;;;;;54.00;44.50;;;;;5.07;100.00;100175.28;6217469;22;45486;-70
2023/12/01 07:13:33;;;;;;;;;52.75;38.00;;;;;5.03;100.00;100171.06;6216582;22;45214;-70
2023/12/01 07:15:58;;;;;;;;;47.50;40.75;;;;;4.90;100.00;100161.06;6189944;22;46014;-69
2023/12/01 07:18:26;;;;;;;;;49.25;38.50;;;;;4.99;100.00;100173.84;6216372;22;45157;-70
2023/12/01 07:20:51;;;;;;;;;50.00;41.00;;;;;5.05;100.00;100192.84;6217229;22;45231;-70
2023/12/01 07:23:20;;;;;;;;;51.75;43.00;;;;;4.96;100.00;100182.66;6217228;22;45161;-70
2023/12/01 07:25:48;;;;;;;;;59.75;41.75;;;;;5.03;100.00;100191.19;6217323;22;45257;-70
2023/12/01 07:28:14;;;;;;;;;45.75;37.25;;;;;5.03;100.00;100192.03;6190217;22;45446;-70
2023/12/01 07:30:41;;;;;;;;;61.00;43.25;;;;;5.02;100.00;100187.69;6215054;22;45221;-70
2023/12/01 07:33:07;;;;;;;;;59.50;43.75;;;;;4.91;100.00;100175.88;6216932;22;45193;-69
2023/12/01 07:35:34;;;;;;;;;57.25;42.25;;;;;5.01;100.00;100192.97;6216394;22;45601;-70
2023/12/01 07:38:00;;;;;;;;;47.25;37.50;;;;;4.95;100.00;100178.34;6215665;22;45287;-70
2023/12/01 07:40:27;;;;;;;;;53.75;40.25;;;;;4.90;100.00;100182.03;6216541;22;45435;-70
2023/12/01 07:43:00;;;;;;;;;56.00;42.75;;;;;5.06;100.00;100188.44;6216844;22;45285;-70
2023/12/01 07:45:25;;;;;;;;;60.75;42.75;;;;;5.04;100.00;100187.66;6189027;22;46065;-70
2023/12/01 07:47:52;;;;;;;;;65.00;45.75;;;;;5.00;100.00;100183.44;6216140;22;45387;-69
2023/12/01 07:50:19;;;;;;;;;59.00;39.75;;;;;5.04;100.00;100192.91;6216957;22;45291;-70
2023/12/01 07:52:46;;;;;;;;;50.50;42.50;;;;;5.01;100.00;100185.13;6216283;22;45162;-70
2023/12/01 07:55:12;;;;;;;;;56.50;45.00;;;;;4.98;100.00;100175.59;6216539;22;45264;-70
2023/12/01 07:57:38;;;;;;;;;53.50;40.25;;;;;5.02;100.00;100189.47;6214796;22;45400;-70
2023/12/01 08:00:06;;;;;;;;;51.50;38.50;;;;;5.04;100.00;100180.63;6216523;22;45294;-70
2023/12/01 08:02:31;;;;;;;;;60.00;46.25;;;;;5.01;100.00;100179.88;6190162;22;45486;-70
2023/12/01 08:04:57;;;;;;;;;55.25;42.75;;;;;5.08;100.00;100195.34;6216613;22;45840;-69
2023/12/01 08:07:22;;;;;;;;;56.25;42.25;;;;;5.15;100.00;100204.72;6189994;22;45324;-70
2023/12/01 08:09:48;;;;;;;;;50.25;40.25;;;;;5.18;100.00;100193.25;6216606;22;45630;-70
2023/12/01 08:12:15;;;;;;;;;45.25;39.75;;;;;5.31;100.00;100210.28;6216388;22;45290;-70
2023/12/01 08:14:41;;;;;;;;;51.25;40.00;;;;;5.39;100.00;100200.38;6216182;22;45342;-70
2023/12/01 08:17:06;;;;;;;;;48.50;36.25;;;;;5.41;100.00;100211.66;6214562;22;45204;-70
2023/12/01 08:19:33;;;;;;;;;56.25;43.00;;;;;5.42;100.00;100220.38;6216502;22;45146;-70
2023/12/01 08:21:59;;;;;;;;;51.50;40.25;;;;;5.38;100.00;100209.16;6214375;22;45423;-69
2023/12/01 08:24:25;;;;;;;;;59.75;43.50;;;;;5.40;100.00;100224.84;6215780;22;46286;-70
2023/12/01 08:26:51;;;;;;;;;50.00;38.75;;;;;5.36;100.00;100220.59;6216687;22;45187;-70
2023/12/01 08:29:17;;;;;;;;;54.50;43.00;;;;;5.35;100.00;100224.13;6189603;22;45306;-70
2023/12/01 08:31:45;;;;;;;;;51.75;39.50;;;;;5.38;100.00;100231.88;6216470;22;45542;-70
2023/12/01 08:34:11;;;;;;;;;48.50;37.00;;;;;5.34;100.00;100217.16;6216540;22;45296;-70
2023/12/01 08:36:36;;;;;;;;;46.50;37.50;;;;;5.37;100.00;100222.31;6215999;22;45216;-70
2023/12/01 08:39:03;;;;;;;;;48.00;39.00;;;;;5.32;100.00;100214.63;6216770;22;45212;-70
2023/12/01 08:41:29;;;;;;;;;55.00;40.25;;;;;5.34;100.00;100218.03;6216458;22;45243;-70
2023/12/01 08:43:54;;;;;;;;;50.50;42.00;;;;;5.30;100.00;100205.94;6215220;22;45174;-70
2023/12/01 08:46:19;;;;;;;;;50.75;38.75;;;;;5.30;100.00;100208.56;6189017;22;45205;-70
2023/12/01 08:48:45;;;;;;;;;52.00;42.25;;;;;5.36;100.00;100220.59;6216584;22;45234;-70
2023/12/01 08:51:10;;;;;;;;;49.25;40.00;;;;;5.31;100.00;100220.75;6189112;22;45216;-70
2023/12/01 08:53:35;;;;;;;;;33.25;26.25;;;;;5.33;100.00;100229.44;6215420;22;47605;-70
2023/12/01 08:56:01;;;;;;;;;55.75;38.75;;;;;5.35;100.00;100219.75;6217182;22;45217;-70
2023/12/01 08:58:28;;;;;;;;;43.75;38.00;;;;;5.37;100.00;100223.16;6189273;22;45341;-70
2023/12/01 09:00:54;;;;;;;;;63.75;49.25;;;;;5.35;100.00;100222.38;6216854;22;45394;-70
2023/12/01 09:03:19;;;;;;;;;51.50;41.75;;;;;5.38;100.00;100230.13;6216696;22;45958;-70
2023/12/01 09:05:45;;;;;;;;;49.25;39.50;;;;;5.34;100.00;100235.53;6216884;22;45183;-70
2023/12/01 09:08:11;;;;;;;;;60.00;42.25;;;;;5.27;100.00;100218.31;6216902;22;45453;-70
2023/12/01 09:10:37;;;;;;;;;51.00;39.00;;;;;5.33;100.00;100226.81;6215440;22;45279;-70
2023/12/01 09:13:03;;;;;;;;;48.25;40.00;;;;;5.24;100.00;100221.88;6189193;22;45481;-70
2023/12/01 09:15:29;;;;;;;;;45.50;38.00;;;;;5.30;100.00;100232.16;6188109;22;45194;-70
2023/12/01 09:17:54;;;;;;;;;49.50;41.25;;;;;5.19;100.00;100218.56;6216572;22;45194;-70
2023/12/01 09:20:20;;;;;;;;;63.00;50.25;;;;;5.28;100.00;100233.97;6216290;22;45475;-70
2023/12/01 09:22:46;;;;;;;;;55.00;40.50;;;;;5.31;100.00;100239.09;6216785;22;45177;-70
2023/12/01 09:25:11;;;;;;;;;49.25;37.50;;;;;5.28;100.00;100238.34;6217042;22;45343;-69
2023/12/01 09:27:37;;;;;;;;;43.75;34.25;;;;;5.23;100.00;100238.53;6216909;22;45293;-70
2023/12/01 09:30:04;;;;;;;;;47.75;38.75;;;;;5.21;100.00;100256.06;6189368;22;45433;-69
2023/12/01 09:32:29;;;;;;;;;56.75;46.00;;;;;5.13;100.00;100245.84;6216669;22;46379;-70
2023/12/01 09:34:55;;;;;;;;;45.50;37.00;;;;;5.18;100.00;100258.78;6216433;22;45223;-70
2023/12/01 09:37:20;;;;;;;;;46.25;38.50;;;;;5.17;100.00;100252.69;6189954;22;45344;-69
2023/12/01 09:39:45;;;;;;;;;58.25;42.25;;;;;5.01;100.00;100230.53;6216632;22;45358;-70
2023/12/01 09:42:11;;;;;;;;;53.50;40.00;;;;;5.18;100.00;100271.91;6216709;22;45860;-70
2023/12/01 09:44:37;;;;;;;;;45.00;38.50;;;;;5.13;100.00;100260.72;6215969;22;45225;-70
2023/12/01 09:47:03;;;;;;;;;48.75;37.00;;;;;5.14;100.00;100270.28;6216955;22;45653;-70
2023/12/01 09:49:33;;;;;;;;;46.50;39.00;;;;;5.13;100.00;100272.06;6216751;22;45138;-70
2023/12/01 09:52:02;;;;;;;;;40.00;36.75;;;;;5.10;100.00;100282.66;6216765;22;45445;-70
2023/12/01 09:54:29;;;;;;;;;46.00;38.50;;;;;5.14;100.00;100292.09;6216333;22;45156;-70
2023/12/01 09:56:57;;;;;;;;;49.00;37.50;;;;;5.12;100.00;100291.31;6216399;22;45267;-70
2023/12/01 09:59:23;;;;;;;;;47.75;41.00;;;;;5.10;100.00;100289.66;6215914;22;45193;-70
2023/12/01 10:01:50;;;;;;;;;37.50;29.75;;;;;5.07;98.33;100293.22;6216533;22;45301;-69
2023/12/01 10:04:16;;;;;;;;;36.75;35.50;;;;;5.04;100.00;100303.78;6189819;22;45248;-70
2023/12/01 10:06:41;;;;;;;;;45.50;39.25;;;;;5.12;100.00;100312.28;6216559;22;45360;-70
2023/12/01 10:09:10;;;;;;;;;39.00;35.50;;;;;5.02;99.34;100299.53;6216280;22;45482;-70
2023/12/01 10:11:38;;;;;;;;;42.75;39.75;;;;;5.16;100.00;100318.28;6189505;22;47270;-70
2023/12/01 10:14:06;;;;;;;;;53.50;39.25;;;;;5.15;100.00;100304.31;6215096;22;45368;-70
2023/12/01 10:16:36;;;;;;;;;49.75;40.00;;;;;5.21;98.70;100313.72;6216577;22;45184;-70
2023/12/01 10:19:05;;;;;;;;;46.00;39.50;;;;;5.21;100.00;100327.69;6189137;22;45335;-70
2023/12/01 10:21:42;;;;;;;;;50.75;39.00;;;;;5.12;100.00;100322.75;6216116;22;45287;-70
2023/12/01 10:24:21;;;;;;;;;56.50;43.25;;;;;5.16;99.92;100329.63;6189372;22;45629;-70
2023/12/01 10:26:49;;;;;;;;;47.75;33.50;;;;;5.16;99.91;100334.00;6216381;22;45386;-70
2023/12/01 10:29:31;;;;;;;;;49.00;39.00;;;;;5.10;100.00;100323.72;6215949;22;45201;-70
2023/12/01 10:31:58;;;;;;;;;55.25;44.50;;;;;5.17;100.00;100333.13;6188818;22;48200;-70
2023/12/01 10:34:24;;;;;;;;;46.50;37.50;;;;;5.11;99.11;100335.91;6216503;22;45189;-70
2023/12/01 10:36:52;;;;;;;;;46.50;36.50;;;;;5.13;100.00;100328.88;6216404;22;45253;-70
2023/12/01 10:39:20;;;;;;;;;43.25;36.50;;;;;5.10;100.00;100327.22;6216519;22;45262;-70
2023/12/01 10:41:47;;;;;;;;;41.25;33.75;;;;;5.13;99.38;100339.34;6215902;22;46583;-70
2023/12/01 10:44:16;;;;;;;;;51.00;40.00;;;;;5.09;100.00;100337.72;6215655;22;45374;-70
2023/12/01 10:46:45;;;;;;;;;37.00;36.50;;;;;5.07;99.75;100339.56;6215850;22;45256;-70
2023/12/01 10:49:13;;;;;;;;;44.25;37.00;;;;;5.00;100.00;100333.66;6215368;22;45122;-70
2023/12/01 10:51:41;;;;;;;;;53.75;39.50;;;;;4.97;100.00;100328.50;6188984;22;45486;-70
2023/12/01 10:54:12;;;;;;;;;45.50;37.25;;;;;4.93;100.00;100331.28;6216088;22;45296;-70
2023/12/01 10:56:52;;;;;;;;;38.25;32.00;;;;;4.90;100.00;100332.22;6215716;22;45339;-70
2023/12/01 10:59:19;;;;;;;;;46.00;39.25;;;;;4.86;100.00;100324.50;6186792;22;45445;-69
2023/12/01 11:01:48;;;;;;;;;49.75;38.25;;;;;4.78;100.00;100314.25;6189020;22;47458;-70
2023/12/01 11:04:22;;;;;;;;;50.75;36.00;;;;;4.91;100.00;100347.03;6188690;22;45290;-69
2023/12/01 11:07:23;;;;;;;;;41.75;35.00;;;;;4.84;100.00;100335.03;6215987;22;45410;-69